Time;durP1;ratioP1;P1;durP2;ratioP2;P2;SDS_P1;SDS_P2;PMS_P1;PMS_P2;Temp;Humidity;BMP_temperature;BMP_pressure;BME280_temperature;BME280_humidity;BME280_pressure;Samples;Min_cycle;Max_cycle;Signal;HPM_P1;HPM_P2
2022/02/27 00:02:06;;;;;;;2.47;2.28;;;3.50;71.10;;;;;;5043286;28;20313;-74
2022/02/27 00:04:33;;;;;;;2.45;2.25;;;3.40;71.30;;;;;;5043341;28;20722;-75
2022/02/27 00:07:00;;;;;;;2.60;2.50;;;3.40;72.00;;;;;;5044242;28;20203;-75
2022/02/27 00:09:29;;;;;;;2.80;2.70;;;3.30;71.80;;;;;;5042947;28;20256;-74
2022/02/27 00:11:56;;;;;;;3.45;3.25;;;3.20;72.20;;;;;;5033665;28;20596;-73
2022/02/27 00:14:23;;;;;;;2.63;2.53;;;3.10;72.70;;;;;;5038763;28;20242;-75
2022/02/27 00:16:50;;;;;;;2.50;2.40;;;3.00;73.10;;;;;;5037024;28;20200;-77
2022/02/27 00:19:20;;;;;;;2.25;2.15;;;3.00;74.10;;;;;;5037356;28;20348;-76
2022/02/27 00:21:47;;;;;;;2.22;2.13;;;3.00;74.60;;;;;;5041265;28;20638;-75
2022/02/27 00:24:14;;;;;;;2.40;2.30;;;2.90;74.30;;;;;;5042203;28;20849;-74
2022/02/27 00:26:41;;;;;;;2.15;2.05;;;2.80;74.50;;;;;;5043458;28;20241;-77
2022/02/27 00:29:08;;;;;;;3.08;2.90;;;2.80;74.50;;;;;;5043370;28;20237;-75
2022/02/27 00:31:35;;;;;;;2.38;2.28;;;2.80;74.60;;;;;;5046750;28;20226;-75
2022/02/27 00:34:03;;;;;;;2.63;2.50;;;2.90;74.90;;;;;;5043410;28;20199;-77
2022/02/27 00:36:31;;;;;;;1.95;1.85;;;2.90;75.30;;;;;;5041395;28;20589;-75
2022/02/27 00:38:58;;;;;;;2.10;2.00;;;2.90;75.00;;;;;;5041747;28;20191;-73
2022/02/27 00:41:25;;;;;;;2.92;2.72;;;2.90;74.90;;;;;;5040456;28;20227;-74
2022/02/27 00:43:52;;;;;;;2.55;2.40;;;2.90;75.00;;;;;;5039776;28;20242;-75
2022/02/27 00:46:19;;;;;;;2.45;2.35;;;2.90;74.90;;;;;;5041626;28;20223;-73
2022/02/27 00:48:46;;;;;;;2.15;2.05;;;2.90;75.60;;;;;;5040844;28;20203;-75
2022/02/27 00:51:13;;;;;;;2.72;2.63;;;2.90;75.80;;;;;;5038424;28;20235;-74
2022/02/27 00:53:42;;;;;;;2.70;2.60;;;2.90;75.60;;;;;;5036893;28;20548;-74
2022/02/27 00:56:10;;;;;;;2.50;2.40;;;2.90;76.40;;;;;;5039955;28;20640;-75
2022/02/27 00:58:37;;;;;;;2.50;2.40;;;2.90;76.00;;;;;;5039195;28;20210;-74
2022/02/27 01:01:04;;;;;;;2.15;2.05;;;3.00;76.00;;;;;;5039635;28;20702;-76
2022/02/27 01:03:31;;;;;;;2.63;2.53;;;2.90;74.80;;;;;;5042036;28;20215;-75
2022/02/27 01:05:58;;;;;;;2.38;2.28;;;2.90;74.10;;;;;;5041048;28;20211;-75
2022/02/27 01:08:25;;;;;;;2.40;2.30;;;3.00;74.50;;;;;;5044973;28;20621;-74
2022/02/27 01:10:53;;;;;;;2.35;2.25;;;2.90;75.60;;;;;;5039445;28;20235;-73
2022/02/27 01:13:20;;;;;;;2.85;2.75;;;2.90;76.40;;;;;;5041726;28;20256;-74
2022/02/27 01:15:47;;;;;;;2.85;2.75;;;2.80;76.60;;;;;;5043550;28;20254;-75
2022/02/27 01:18:14;;;;;;;2.85;2.65;;;2.80;76.80;;;;;;5040027;28;20202;-74
2022/02/27 01:20:41;;;;;;;2.28;2.17;;;2.80;76.40;;;;;;5038301;28;20250;-74
2022/02/27 01:23:10;;;;;;;2.20;2.10;;;2.80;76.80;;;;;;5045022;28;20280;-74
2022/02/27 01:25:37;;;;;;;2.75;2.65;;;2.80;76.90;;;;;;5038309;28;20306;-75
2022/02/27 01:28:06;;;;;;;2.40;2.30;;;2.80;77.70;;;;;;5040953;28;20196;-75
2022/02/27 01:30:33;;;;;;;2.53;2.42;;;2.70;77.90;;;;;;5037098;28;20211;-74
2022/02/27 01:33:00;;;;;;;2.50;2.40;;;2.70;78.20;;;;;;5041757;28;20245;-74
2022/02/27 01:35:28;;;;;;;2.80;2.70;;;2.70;78.10;;;;;;5061263;22;20226;-69
2022/02/27 01:37:55;;;;;;;2.67;2.58;;;2.70;77.90;;;;;;5043597;28;20895;-70
2022/02/27 01:40:22;;;;;;;2.45;2.35;;;2.70;77.70;;;;;;5050141;28;20221;-70
2022/02/27 01:42:49;;;;;;;2.63;2.53;;;2.60;77.20;;;;;;5066664;28;20195;-68
2022/02/27 01:45:17;;;;;;;2.50;2.40;;;2.60;76.20;;;;;;5066252;28;20272;-67
2022/02/27 01:47:44;;;;;;;2.88;2.78;;;2.60;76.70;;;;;;5046415;28;20252;-68
2022/02/27 01:50:12;;;;;;;2.85;2.75;;;2.60;76.60;;;;;;5045466;28;20223;-68
2022/02/27 01:52:39;;;;;;;2.80;2.67;;;2.60;76.30;;;;;;5046781;28;20195;-67
2022/02/27 01:55:07;;;;;;;2.60;2.50;;;2.50;76.00;;;;;;5043727;28;20230;-67
2022/02/27 01:57:34;;;;;;;2.78;2.67;;;2.50;75.70;;;;;;5050289;28;20219;-68
2022/02/27 02:00:04;;;;;;;2.53;2.42;;;2.50;75.60;;;;;;5046347;28;20689;-67
2022/02/27 02:02:32;;;;;;;2.90;2.70;;;2.50;75.70;;;;;;5046694;28;20766;-67
2022/02/27 02:04:59;;;;;;;2.95;2.75;;;2.50;75.90;;;;;;5046427;28;20214;-67
2022/02/27 02:07:27;;;;;;;2.55;2.45;;;2.40;76.30;;;;;;5046431;28;20246;-68
2022/02/27 02:09:54;;;;;;;2.13;2.03;;;2.40;76.20;;;;;;5047032;28;20191;-67
2022/02/27 02:12:21;;;;;;;2.83;2.63;;;2.40;76.50;;;;;;5048621;28;20665;-68
2022/02/27 02:14:48;;;;;;;2.70;2.60;;;2.40;76.70;;;;;;5048527;28;20264;-68
2022/02/27 02:17:21;;;;;;;2.90;2.80;;;2.40;76.70;;;;;;5047981;28;20865;-67
2022/02/27 02:19:56;;;;;;;2.90;2.80;;;2.40;76.30;;;;;;5046533;28;20195;-68
2022/02/27 02:22:23;;;;;;;2.72;2.53;;;2.50;76.10;;;;;;5046415;28;20202;-67
2022/02/27 02:24:51;;;;;;;2.53;2.42;;;2.40;76.20;;;;;;5041865;28;20222;-69
2022/02/27 02:27:18;;;;;;;2.40;2.30;;;2.40;76.50;;;;;;5044236;28;20639;-69
2022/02/27 02:29:45;;;;;;;2.80;2.70;;;2.30;77.30;;;;;;5042512;28;20554;-67
2022/02/27 02:32:12;;;;;;;2.88;2.78;;;2.20;77.80;;;;;;5045096;28;20227;-67
2022/02/27 02:34:39;;;;;;;2.90;2.80;;;2.20;77.70;;;;;;5043448;28;20199;-67
2022/02/27 02:37:11;;;;;;;2.40;2.30;;;2.20;77.60;;;;;;5043816;28;20253;-67
2022/02/27 02:39:38;;;;;;;2.95;2.80;;;2.10;77.80;;;;;;5042918;28;20228;-67
2022/02/27 02:42:05;;;;;;;3.03;2.83;;;2.00;77.80;;;;;;5042498;28;20766;-68
2022/02/27 02:44:32;;;;;;;2.90;2.70;;;1.90;78.40;;;;;;5045456;28;20223;-67
2022/02/27 02:47:00;;;;;;;3.13;2.90;;;1.80;78.60;;;;;;5043003;28;20268;-67
2022/02/27 02:49:27;;;;;;;3.67;3.38;;;1.80;79.20;;;;;;5044926;28;20237;-67
2022/02/27 02:51:55;;;;;;;2.95;2.85;;;1.70;79.20;;;;;;5044533;28;20289;-67
2022/02/27 02:54:24;;;;;;;2.88;2.70;;;1.70;79.90;;;;;;5043169;28;20350;-67
2022/02/27 02:56:51;;;;;;;3.28;3.08;;;1.60;79.80;;;;;;5043021;28;20325;-67
2022/02/27 02:59:19;;;;;;;2.83;2.63;;;1.60;79.90;;;;;;5045755;28;20211;-67
2022/02/27 03:01:47;;;;;;;2.92;2.72;;;1.60;80.40;;;;;;5044159;28;20292;-68
2022/02/27 03:04:14;;;;;;;2.88;2.67;;;1.50;80.10;;;;;;5044375;28;20673;-67
2022/02/27 03:06:41;;;;;;;3.20;3.00;;;1.50;80.80;;;;;;5040367;28;20227;-67
2022/02/27 03:09:08;;;;;;;2.95;2.85;;;1.40;81.20;;;;;;5042773;28;20626;-67
2022/02/27 03:11:37;;;;;;;3.63;3.42;;;1.40;82.20;;;;;;5044747;28;20223;-67
2022/02/27 03:14:04;;;;;;;3.40;3.20;;;1.30;81.30;;;;;;5043017;28;20207;-67
2022/02/27 03:16:31;;;;;;;3.30;3.10;;;1.30;81.80;;;;;;5043652;28;20230;-67
2022/02/27 03:18:58;;;;;;;2.22;2.13;;;1.30;82.80;;;;;;5041076;28;20202;-67
2022/02/27 03:21:25;;;;;;;3.33;3.13;;;1.30;82.40;;;;;;5044924;28;20637;-67
2022/02/27 03:23:53;;;;;;;3.13;2.92;;;1.30;82.70;;;;;;5042086;28;20265;-67
2022/02/27 03:26:21;;;;;;;3.22;3.03;;;1.30;83.60;;;;;;5043216;28;20328;-68
2022/02/27 03:28:50;;;;;;;2.47;2.38;;;1.20;82.70;;;;;;5041609;28;20475;-68
2022/02/27 03:31:18;;;;;;;3.25;3.15;;;1.20;83.10;;;;;;5041908;28;20211;-68
2022/02/27 03:33:45;;;;;;;3.20;3.10;;;1.20;83.00;;;;;;5044491;28;20268;-67
2022/02/27 03:36:12;;;;;;;2.83;2.70;;;1.30;82.40;;;;;;5043155;28;20223;-67
2022/02/27 03:38:39;;;;;;;2.35;2.25;;;1.30;82.00;;;;;;5043843;28;20337;-67
2022/02/27 03:41:06;;;;;;;2.90;2.80;;;1.40;82.00;;;;;;5039949;28;20214;-67
2022/02/27 03:43:34;;;;;;;2.78;2.63;;;1.40;82.50;;;;;;5040689;28;20213;-67
2022/02/27 03:46:02;;;;;;;2.60;2.50;;;1.40;82.40;;;;;;5043302;28;20226;-67
2022/02/27 03:48:30;;;;;;;3.10;2.83;;;1.40;83.10;;;;;;5045171;28;20302;-67
2022/02/27 03:50:57;;;;;;;2.95;2.85;;;1.40;82.70;;;;;;5039530;28;20224;-68
2022/02/27 03:53:24;;;;;;;3.05;2.85;;;1.40;83.60;;;;;;5042389;28;20355;-67
2022/02/27 03:55:51;;;;;;;2.40;2.30;;;1.30;83.80;;;;;;5043645;28;20300;-67
2022/02/27 03:58:19;;;;;;;2.38;2.22;;;1.40;83.20;;;;;;5042127;28;20257;-67
2022/02/27 04:00:46;;;;;;;3.00;2.88;;;1.40;82.50;;;;;;5043192;28;20233;-68
2022/02/27 04:03:15;;;;;;;3.47;3.28;;;1.40;82.90;;;;;;5046481;28;20198;-67
2022/02/27 04:05:42;;;;;;;2.83;2.72;;;1.40;82.40;;;;;;5044962;28;20223;-68
2022/02/27 04:08:10;;;;;;;3.08;2.97;;;1.40;81.70;;;;;;5047408;28;20225;-68
2022/02/27 04:10:37;;;;;;;3.10;3.00;;;1.40;82.10;;;;;;5044483;28;20257;-68
2022/02/27 04:13:04;;;;;;;3.78;3.58;;;1.30;82.60;;;;;;5045862;28;20708;-67
2022/02/27 04:15:31;;;;;;;3.30;3.03;;;1.20;82.70;;;;;;5046674;28;20198;-67
2022/02/27 04:17:58;;;;;;;3.17;3.08;;;1.20;83.30;;;;;;5045770;28;20642;-68
2022/02/27 04:20:27;;;;;;;3.08;2.97;;;1.20;83.60;;;;;;5045646;28;20210;-68
2022/02/27 04:22:54;;;;;;;2.83;2.72;;;1.20;83.10;;;;;;5048548;28;20245;-67
2022/02/27 04:25:21;;;;;;;3.20;3.08;;;1.20;82.70;;;;;;5045215;28;20219;-68
2022/02/27 04:27:48;;;;;;;3.40;3.20;;;1.10;83.00;;;;;;5046601;28;20203;-67
2022/02/27 04:30:15;;;;;;;3.10;2.90;;;1.00;82.90;;;;;;5044254;28;20225;-67
2022/02/27 04:32:42;;;;;;;2.95;2.75;;;1.00;83.00;;;;;;5027838;28;20228;-67
2022/02/27 04:35:09;;;;;;;3.70;3.50;;;0.90;83.40;;;;;;5026658;28;20199;-67
2022/02/27 04:37:38;;;;;;;2.78;2.65;;;0.80;83.30;;;;;;5029475;28;20626;-68
2022/02/27 04:40:06;;;;;;;3.08;2.97;;;0.80;83.50;;;;;;5029543;28;20196;-67
2022/02/27 04:42:33;;;;;;;2.95;2.85;;;0.80;84.20;;;;;;5044776;28;20208;-68
2022/02/27 04:45:00;;;;;;;2.58;2.47;;;0.80;83.50;;;;;;5046605;28;20200;-68
2022/02/27 04:47:28;;;;;;;3.28;3.08;;;0.80;83.60;;;;;;5048083;28;20259;-69
2022/02/27 04:49:55;;;;;;;3.13;3.03;;;0.80;83.90;;;;;;5023845;28;20192;-68
2022/02/27 04:52:22;;;;;;;2.55;2.45;;;0.80;84.10;;;;;;5040973;28;20284;-68
2022/02/27 04:54:51;;;;;;;2.80;2.70;;;0.80;84.10;;;;;;5047606;28;20199;-68
2022/02/27 04:57:18;;;;;;;2.90;2.80;;;0.90;84.50;;;;;;5028799;28;20242;-67
2022/02/27 04:59:45;;;;;;;2.72;2.63;;;0.90;84.50;;;;;;5024979;28;20196;-68
2022/02/27 05:02:12;;;;;;;2.88;2.78;;;0.90;84.30;;;;;;5024111;28;20568;-67
2022/02/27 05:04:39;;;;;;;2.63;2.53;;;0.90;84.80;;;;;;5021053;28;20277;-67
2022/02/27 05:07:06;;;;;;;3.33;3.13;;;0.90;84.60;;;;;;5037766;28;20222;-67
2022/02/27 05:09:33;;;;;;;3.35;3.17;;;0.90;84.80;;;;;;5046122;28;20290;-68
2022/02/27 05:12:02;;;;;;;3.30;3.20;;;0.80;85.00;;;;;;5032690;28;20220;-67
2022/02/27 05:14:29;;;;;;;3.05;2.95;;;0.80;85.10;;;;;;5026236;28;20258;-67
2022/02/27 05:16:56;;;;;;;3.15;3.05;;;0.80;85.00;;;;;;5020859;28;20656;-67
2022/02/27 05:19:23;;;;;;;3.00;2.85;;;0.70;84.80;;;;;;5027545;28;20200;-67
2022/02/27 05:21:50;;;;;;;3.30;3.20;;;0.70;85.10;;;;;;5029773;28;20223;-68
2022/02/27 05:24:17;;;;;;;2.78;2.67;;;0.70;85.90;;;;;;5025918;28;20219;-67
2022/02/27 05:26:44;;;;;;;3.20;3.10;;;0.70;85.70;;;;;;5020350;28;20273;-68
2022/02/27 05:29:13;;;;;;;3.28;3.17;;;0.70;85.70;;;;;;5021843;28;20241;-67
2022/02/27 05:31:40;;;;;;;3.10;2.95;;;0.80;85.80;;;;;;5022820;28;20642;-67
2022/02/27 05:34:08;;;;;;;2.83;2.72;;;0.80;85.90;;;;;;5023286;28;20869;-67
2022/02/27 05:36:35;;;;;;;3.15;3.05;;;0.80;85.30;;;;;;5023587;28;20215;-67
2022/02/27 05:39:02;;;;;;;3.22;3.08;;;0.80;85.10;;;;;;5024638;28;20270;-68
2022/02/27 05:41:29;;;;;;;3.22;3.03;;;0.80;85.60;;;;;;5024479;28;20265;-67
2022/02/27 05:43:56;;;;;;;3.00;2.90;;;0.70;85.80;;;;;;5023377;28;20206;-67
2022/02/27 05:46:25;;;;;;;3.65;3.45;;;0.70;85.60;;;;;;5027893;28;20227;-67
2022/02/27 05:48:52;;;;;;;3.42;3.33;;;0.70;85.20;;;;;;5024094;28;20196;-67
2022/02/27 05:51:19;;;;;;;3.20;3.05;;;0.70;85.00;;;;;;5028841;28;20237;-67
2022/02/27 05:53:46;;;;;;;2.90;2.80;;;0.70;85.80;;;;;;5044635;28;20312;-67
2022/02/27 05:56:14;;;;;;;2.97;2.88;;;0.70;85.70;;;;;;5043656;28;20709;-68
2022/02/27 05:58:41;;;;;;;2.90;2.40;;;0.70;86.40;;;;;;5045492;28;20206;-68
2022/02/27 06:01:08;;;;;;;2.88;2.78;;;0.70;86.20;;;;;;5043622;28;20219;-68
2022/02/27 06:03:36;;;;;;;3.00;2.80;;;0.60;86.70;;;;;;5047094;28;20676;-67
2022/02/27 06:06:03;;;;;;;3.40;3.20;;;0.60;86.90;;;;;;5043371;28;20781;-68
2022/02/27 06:08:31;;;;;;;2.80;2.70;;;0.60;86.60;;;;;;5043596;28;20195;-67
2022/02/27 06:10:58;;;;;;;2.95;2.85;;;0.50;86.10;;;;;;5044492;28;20322;-68
2022/02/27 06:13:25;;;;;;;3.15;3.05;;;0.60;86.00;;;;;;5044135;28;20225;-67
2022/02/27 06:15:52;;;;;;;2.80;2.70;;;0.60;85.80;;;;;;5043835;28;20222;-67
2022/02/27 06:18:19;;;;;;;3.97;3.67;;;0.70;85.80;;;;;;5039373;28;20203;-67
2022/02/27 06:20:48;;;;;;;3.03;2.92;;;0.70;84.50;;;;;;5041437;28;20198;-68
2022/02/27 06:23:15;;;;;;;3.03;2.92;;;0.80;84.30;;;;;;5044590;28;20206;-69
2022/02/27 06:25:42;;;;;;;3.35;3.15;;;0.70;84.30;;;;;;5042999;28;20893;-67
2022/02/27 06:28:09;;;;;;;3.22;3.13;;;0.60;84.70;;;;;;5043645;28;20195;-67
2022/02/27 06:30:36;;;;;;;3.63;3.42;;;0.60;85.50;;;;;;5042134;28;20206;-67
2022/02/27 06:33:03;;;;;;;3.28;3.17;;;0.50;85.60;;;;;;5045139;28;20222;-68
2022/02/27 06:35:30;;;;;;;3.63;3.42;;;0.50;86.00;;;;;;5042308;28;20396;-67
2022/02/27 06:37:58;;;;;;;3.33;3.13;;;0.50;87.00;;;;;;5044854;28;20614;-68
2022/02/27 06:40:26;;;;;;;3.20;3.00;;;0.50;85.90;;;;;;5042388;28;20201;-68
2022/02/27 06:42:54;;;;;;;3.90;3.58;;;0.50;86.10;;;;;;5044169;28;20318;-68
2022/02/27 06:45:21;;;;;;;3.35;3.15;;;0.50;85.80;;;;;;5042851;28;20215;-68
2022/02/27 06:47:48;;;;;;;4.20;4.00;;;0.50;85.90;;;;;;5042760;28;20218;-67
2022/02/27 06:50:15;;;;;;;3.70;3.50;;;0.50;85.80;;;;;;5041390;28;20277;-68
2022/02/27 06:52:42;;;;;;;3.30;3.15;;;0.50;86.00;;;;;;5044408;28;20222;-67
2022/02/27 06:55:15;;;;;;;3.00;2.80;;;0.50;85.60;;;;;;5046481;28;20607;-67
2022/02/27 06:57:43;;;;;;;2.75;2.65;;;0.50;86.00;;;;;;5046279;28;20237;-67
2022/02/27 07:00:11;;;;;;;3.50;3.30;;;0.60;86.00;;;;;;5043773;28;20215;-68
2022/02/27 07:02:39;;;;;;;4.45;4.15;;;0.60;86.00;;;;;;5041724;28;20226;-67
2022/02/27 07:05:07;;;;;;;4.55;4.25;;;0.60;85.80;;;;;;5046158;28;20221;-67
2022/02/27 07:07:34;;;;;;;3.92;3.63;;;0.60;86.20;;;;;;5046009;28;20218;-68
2022/02/27 07:10:02;;;;;;;2.88;2.78;;;0.60;85.80;;;;;;5046091;28;20215;-68
2022/02/27 07:12:32;;;;;;;3.47;3.28;;;0.60;86.20;;;;;;5044889;28;20226;-68
2022/02/27 07:14:59;;;;;;;3.88;3.60;;;0.70;86.20;;;;;;5041049;28;20538;-66
2022/02/27 07:17:26;;;;;;;4.10;3.40;;;0.90;86.00;;;;;;5038743;28;20221;-66
2022/02/27 07:19:54;;;;;;;3.58;3.38;;;1.80;85.30;;;;;;5044171;28;20199;-66
2022/02/27 07:22:22;;;;;;;3.38;3.17;;;2.70;83.40;;;;;;5042116;28;20218;-67
2022/02/27 07:24:49;;;;;;;3.75;3.45;;;3.40;81.10;;;;;;5044786;28;20210;-66
2022/02/27 07:27:17;;;;;;;3.53;3.33;;;4.10;80.50;;;;;;5043212;28;20277;-66
2022/02/27 07:29:46;;;;;;;3.35;3.00;;;4.60;79.30;;;;;;5042424;28;20206;-66
2022/02/27 07:32:14;;;;;;;3.60;3.35;;;4.90;78.60;;;;;;5043985;28;20226;-66
2022/02/27 07:34:41;;;;;;;4.38;3.22;;;5.00;77.70;;;;;;5043683;28;20639;-67
2022/02/27 07:37:09;;;;;;;3.22;2.92;;;5.20;77.80;;;;;;5069215;22;20227;-72
2022/02/27 07:39:36;;;;;;;3.55;3.35;;;5.40;78.20;;;;;;5046873;28;20252;-73
2022/02/27 07:42:03;;;;;;;3.45;3.25;;;5.60;77.10;;;;;;5049887;28;20215;-73
2022/02/27 07:44:30;;;;;;;2.78;2.53;;;6.00;77.60;;;;;;5026867;28;20199;-73
2022/02/27 07:46:59;;;;;;;3.08;2.88;;;6.20;76.00;;;;;;5027298;28;20220;-74
2022/02/27 07:49:26;;;;;;;2.60;2.50;;;6.40;75.80;;;;;;5018450;28;20412;-73
2022/02/27 07:51:53;;;;;;;3.30;3.00;;;6.70;75.30;;;;;;5026578;28;20215;-73
2022/02/27 07:54:20;;;;;;;2.92;2.70;;;6.90;74.30;;;;;;5025364;28;20295;-73
2022/02/27 07:56:48;;;;;;;3.20;3.00;;;7.10;74.50;;;;;;5022689;28;20306;-73
2022/02/27 07:59:15;;;;;;;2.95;2.75;;;7.20;73.30;;;;;;5021877;28;20215;-73
2022/02/27 08:01:42;;;;;;;3.13;2.78;;;7.30;73.10;;;;;;5025296;28;20216;-73
2022/02/27 08:04:11;;;;;;;2.88;2.55;;;7.30;73.30;;;;;;5028364;28;20195;-73
2022/02/27 08:06:38;;;;;;;3.50;2.88;;;7.00;71.80;;;;;;5020900;28;20251;-73
2022/02/27 08:09:06;;;;;;;3.08;2.80;;;6.90;72.30;;;;;;5028466;28;20208;-72
2022/02/27 08:11:34;;;;;;;2.72;2.50;;;7.00;72.70;;;;;;5033155;28;20632;-72
2022/02/27 08:14:01;;;;;;;3.17;2.88;;;7.10;72.50;;;;;;5020295;28;20258;-72
2022/02/27 08:16:28;;;;;;;2.88;2.78;;;7.20;73.30;;;;;;5027835;28;20278;-73
2022/02/27 08:18:56;;;;;;;4.82;3.00;;;7.50;74.00;;;;;;5022144;28;20203;-72
2022/02/27 08:21:24;;;;;;;3.42;3.22;;;7.90;73.20;;;;;;5021962;28;20323;-73
2022/02/27 08:23:51;;;;;;;3.08;2.83;;;8.20;72.10;;;;;;5027457;28;20212;-73
2022/02/27 08:26:18;;;;;;;1.92;1.83;;;8.80;72.50;;;;;;5022251;28;20211;-72
2022/02/27 08:28:45;;;;;;;2.88;2.67;;;9.00;70.10;;;;;;5026170;28;20646;-73
2022/02/27 08:31:12;;;;;;;2.58;2.47;;;9.30;68.80;;;;;;5022206;28;20192;-73
2022/02/27 08:33:39;;;;;;;2.95;2.58;;;9.50;68.50;;;;;;5025326;28;20199;-73
2022/02/27 08:36:07;;;;;;;2.17;1.98;;;9.70;69.40;;;;;;5037568;28;20192;-74
2022/02/27 08:38:35;;;;;;;2.30;2.20;;;10.00;68.20;;;;;;5025275;28;20231;-72
2022/02/27 08:41:02;;;;;;;2.75;2.55;;;10.30;67.70;;;;;;5022930;28;20196;-73
2022/02/27 08:43:29;;;;;;;2.85;1.98;;;10.00;65.20;;;;;;5024603;28;20235;-72
2022/02/27 08:45:56;;;;;;;2.40;2.20;;;9.70;65.90;;;;;;5026702;28;20223;-72
2022/02/27 08:48:23;;;;;;;2.53;2.33;;;9.80;66.20;;;;;;5024268;28;20633;-72
2022/02/27 08:50:50;;;;;;;2.45;2.20;;;9.60;65.90;;;;;;5025306;28;20196;-73
2022/02/27 08:53:18;;;;;;;2.80;2.60;;;9.30;65.90;;;;;;5029461;28;20219;-73
2022/02/27 08:55:46;;;;;;;2.40;2.30;;;9.10;65.80;;;;;;5023873;28;20879;-73
2022/02/27 08:58:13;;;;;;;3.15;2.55;;;8.80;65.40;;;;;;5020026;28;20258;-71
2022/02/27 09:00:40;;;;;;;2.50;2.30;;;8.60;65.60;;;;;;5018090;28;20207;-74
2022/02/27 09:03:07;;;;;;;2.70;2.50;;;8.60;67.10;;;;;;5024956;28;20220;-74
2022/02/27 09:05:36;;;;;;;2.53;2.33;;;8.80;67.10;;;;;;5027858;28;20219;-71
2022/02/27 09:08:03;;;;;;;2.25;2.00;;;8.70;66.20;;;;;;5025508;28;20226;-74
2022/02/27 09:10:30;;;;;;;2.40;2.20;;;8.70;66.40;;;;;;5022695;28;20199;-72
2022/02/27 09:12:59;;;;;;;3.00;2.80;;;8.90;67.90;;;;;;5022824;28;20219;-72
2022/02/27 09:15:26;;;;;;;2.17;1.98;;;9.20;65.30;;;;;;5029113;28;20772;-74
2022/02/27 09:17:53;;;;;;;2.40;2.20;;;9.50;66.00;;;;;;5022907;28;20750;-75
2022/02/27 09:20:20;;;;;;;2.65;2.45;;;9.60;65.30;;;;;;5025875;28;20204;-72
2022/02/27 09:22:47;;;;;;;2.35;2.15;;;9.70;65.00;;;;;;5024005;28;20705;-75
2022/02/27 09:25:14;;;;;;;4.03;2.03;;;9.70;64.60;;;;;;5022145;28;21020;-72
2022/02/27 09:27:41;;;;;;;2.30;2.20;;;9.30;64.70;;;;;;5025259;28;20227;-75
2022/02/27 09:30:12;;;;;;;3.53;2.17;;;9.40;65.00;;;;;;5038599;28;20215;-72
2022/02/27 09:32:39;;;;;;;2.25;2.15;;;9.40;66.20;;;;;;5025381;28;20223;-73
2022/02/27 09:35:07;;;;;;;4.78;2.40;;;9.90;65.30;;;;;;5028204;28;20203;-74
2022/02/27 09:37:34;;;;;;;2.38;2.28;;;10.00;64.00;;;;;;5025832;28;20771;-74
2022/02/27 09:40:02;;;;;;;2.28;2.17;;;10.60;64.70;;;;;;5028548;28;20212;-75
2022/02/27 09:42:31;;;;;;;1.67;1.58;;;10.60;62.90;;;;;;5023588;28;20733;-74
2022/02/27 09:44:59;;;;;;;3.10;2.25;;;10.80;63.30;;;;;;5023916;28;20207;-74
2022/02/27 09:47:28;;;;;;;3.05;2.10;;;10.90;62.40;;;;;;5031435;28;20273;-73
2022/02/27 09:49:55;;;;;;;2.20;2.00;;;11.10;61.80;;;;;;5042842;28;20724;-71
2022/02/27 09:52:23;;;;;;;2.10;2.00;;;11.40;62.30;;;;;;5047485;28;20578;-72
2022/02/27 09:54:50;;;;;;;1.70;1.60;;;11.70;61.70;;;;;;5046053;28;20289;-75
2022/02/27 09:57:19;;;;;;;3.58;1.95;;;11.70;60.90;;;;;;5044922;28;20222;-75
2022/02/27 09:59:46;;;;;;;2.00;1.73;;;11.30;60.50;;;;;;5042673;28;20654;-76
2022/02/27 10:02:15;;;;;;;1.50;1.40;;;11.40;61.30;;;;;;5045345;28;20222;-76
2022/02/27 10:04:48;;;;;;;1.85;1.75;;;11.30;61.10;;;;;;5046235;28;20578;-74
2022/02/27 10:07:16;;;;;;;2.05;1.88;;;11.50;61.20;;;;;;5045450;28;20316;-76
2022/02/27 10:09:46;;;;;;;2.50;1.60;;;11.50;59.70;;;;;;5046935;28;20199;-76
2022/02/27 10:12:20;;;;;;;1.70;1.60;;;11.60;60.10;;;;;;5046898;28;20280;-74
2022/02/27 10:14:58;;;;;;;1.70;1.60;;;11.80;60.20;;;;;;5046538;28;20191;-74
2022/02/27 10:17:33;;;;;;;1.77;1.67;;;11.70;58.90;;;;;;5046668;28;20226;-74
2022/02/27 10:20:03;;;;;;;2.00;1.90;;;11.50;59.20;;;;;;5044859;28;20202;-72
2022/02/27 10:22:32;;;;;;;1.90;1.80;;;11.90;60.30;;;;;;5047026;28;20234;-72
2022/02/27 10:25:00;;;;;;;2.00;1.90;;;12.50;61.20;;;;;;5048517;28;20260;-73
2022/02/27 10:27:44;;;;;;;1.65;1.55;;;13.40;60.40;;;;;;5046521;28;20230;-73
2022/02/27 10:30:20;;;;;;;2.08;1.92;;;14.10;59.00;;;;;;5045333;28;20198;-73
2022/02/27 10:32:53;;;;;;;1.88;1.77;;;13.90;57.50;;;;;;5045441;28;20222;-72
2022/02/27 10:35:41;;;;;;;1.73;1.60;;;13.50;58.20;;;;;;5045311;28;20660;-74
2022/02/27 10:38:10;;;;;;;5.00;1.80;;;13.00;59.40;;;;;;5042212;28;20219;-73
2022/02/27 10:40:39;;;;;;;4.93;1.92;;;12.90;59.80;;;;;;5044941;28;20203;-71
2022/02/27 10:43:07;;;;;;;1.98;1.50;;;13.40;63.80;;;;;;5046736;28;20504;-73
2022/02/27 10:45:34;;;;;;;1.65;1.35;;;13.70;62.20;;;;;;5044935;28;20199;-73
2022/02/27 10:48:04;;;;;;;1.88;1.52;;;14.20;62.10;;;;;;5044687;28;20231;-72
2022/02/27 10:50:31;;;;;;;1.75;1.58;;;14.10;60.10;;;;;;5042895;28;20230;-71
2022/02/27 10:53:00;;;;;;;2.22;2.03;;;13.50;57.30;;;;;;5047049;28;20273;-72
2022/02/27 10:55:27;;;;;;;1.65;1.55;;;13.00;57.80;;;;;;5050436;28;20203;-73
2022/02/27 10:57:55;;;;;;;1.65;1.50;;;12.90;59.30;;;;;;5049541;28;20728;-72
2022/02/27 11:00:24;;;;;;;1.80;1.70;;;12.90;57.80;;;;;;5039276;28;20252;-73
2022/02/27 11:02:54;;;;;;;2.10;1.90;;;13.10;57.90;;;;;;5047415;28;20231;-73
2022/02/27 11:05:22;;;;;;;1.77;1.67;;;13.30;57.80;;;;;;5045588;28;20568;-73
2022/02/27 11:07:55;;;;;;;2.15;1.95;;;12.90;56.50;;;;;;5047323;28;20229;-73
2022/02/27 11:10:24;;;;;;;1.80;1.70;;;12.40;56.60;;;;;;5044441;28;20195;-73
2022/02/27 11:12:52;;;;;;;1.92;1.83;;;12.20;56.80;;;;;;5047172;28;20226;-73
2022/02/27 11:15:21;;;;;;;2.33;1.75;;;12.10;56.50;;;;;;5045226;28;20249;-73
2022/02/27 11:17:49;;;;;;;1.58;1.48;;;12.30;57.00;;;;;;5047767;28;20223;-73
2022/02/27 11:20:19;;;;;;;1.90;1.58;;;12.40;57.30;;;;;;5046418;28;20199;-73
2022/02/27 11:22:47;;;;;;;1.80;1.70;;;12.50;56.80;;;;;;5049284;28;20218;-73
2022/02/27 11:25:15;;;;;;;2.00;1.73;;;12.50;57.80;;;;;;5046622;28;20202;-73
2022/02/27 11:27:47;;;;;;;1.90;1.70;;;12.40;57.50;;;;;;5047252;28;20230;-73
2022/02/27 11:30:17;;;;;;;1.75;1.65;;;12.40;57.00;;;;;;5049641;28;20199;-76
2022/02/27 11:32:50;;;;;;;1.80;1.70;;;12.20;57.10;;;;;;5047063;28;20305;-73
2022/02/27 11:35:33;;;;;;;1.80;1.70;;;11.90;57.20;;;;;;5047140;28;20198;-75
2022/02/27 11:38:00;;;;;;;1.73;1.63;;;12.00;57.30;;;;;;5041778;28;20220;-73
2022/02/27 11:40:31;;;;;;;1.70;1.58;;;12.00;56.90;;;;;;5046845;28;20210;-73
2022/02/27 11:43:00;;;;;;;2.03;1.58;;;12.20;57.00;;;;;;5044461;28;20740;-73
2022/02/27 11:45:57;;;;;;;2.15;1.60;;;12.30;57.10;;;;;;5048033;28;20738;-73
2022/02/27 11:49:04;;;;;;;1.77;1.50;;;12.70;59.60;;;;;;5043765;28;20459;-73
2022/02/27 11:51:52;;;;;;;1.75;1.65;;;12.80;56.70;;;;;;5044055;28;20202;-74
2022/02/27 11:54:21;;;;;;;1.80;1.70;;;12.80;54.70;;;;;;5046992;28;20218;-73
2022/02/27 11:57:08;;;;;;;1.77;1.60;;;12.80;57.20;;;;;;5048885;28;20211;-74
2022/02/27 11:59:57;;;;;;;1.60;1.50;;;13.00;56.30;;;;;;5040821;28;20211;-73
2022/02/27 12:02:41;;;;;;;1.60;1.50;;;13.00;55.00;;;;;;5045730;28;20689;-74
2022/02/27 12:05:10;;;;;;;1.77;1.67;;;13.00;58.20;;;;;;5044762;28;20711;-74
2022/02/27 12:08:04;;;;;;;2.97;1.80;;;13.40;57.30;;;;;;5047400;28;20223;-74
2022/02/27 12:10:36;;;;;;;1.58;1.48;;;13.40;55.30;;;;;;5042696;28;20259;-74
2022/02/27 12:13:03;;;;;;;1.88;1.77;;;13.20;54.80;;;;;;5059093;28;20191;-73
2022/02/27 12:15:36;;;;;;;1.63;1.35;;;13.30;55.50;;;;;;5045336;28;20219;-74
2022/02/27 12:18:06;;;;;;;1.58;1.48;;;13.30;54.60;;;;;;5046397;28;20219;-74
2022/02/27 12:20:52;;;;;;;1.52;1.42;;;13.20;55.30;;;;;;5044065;28;20292;-74
2022/02/27 12:23:47;;;;;;;1.50;1.40;;;13.10;54.00;;;;;;5046258;28;20199;-74
2022/02/27 12:26:53;;;;;;;1.67;1.58;;;13.10;54.90;;;;;;5044645;28;20229;-73
2022/02/27 12:29:29;;;;;;;1.58;1.48;;;12.70;56.10;;;;;;5047841;28;20728;-73
2022/02/27 12:32:03;;;;;;;1.58;1.48;;;12.90;55.30;;;;;;5049452;28;20217;-73
2022/02/27 12:34:32;;;;;;;1.25;1.25;;;13.10;56.20;;;;;;5046639;28;20305;-73
2022/02/27 12:37:00;;;;;;;1.65;1.50;;;13.30;55.10;;;;;;5054577;28;20234;-74
2022/02/27 12:39:31;;;;;;;1.52;1.40;;;13.40;54.30;;;;;;5074061;28;20214;-76
2022/02/27 12:41:58;;;;;;;2.03;1.70;;;13.30;54.60;;;;;;5063232;28;20244;-73
2022/02/27 12:44:28;;;;;;;1.45;1.35;;;13.10;54.40;;;;;;5049338;28;20277;-73
2022/02/27 12:46:57;;;;;;;1.55;1.45;;;12.70;53.80;;;;;;5047617;28;20229;-73
2022/02/27 12:52:13;;;;;;;1.33;1.30;;;13.00;54.20;;;;;;5048484;28;20276;-76
2022/02/27 12:54:40;;;;;;;1.58;1.48;;;12.90;53.90;;;;;;5049189;28;20250;-76
2022/02/27 12:57:10;;;;;;;1.85;1.75;;;12.90;54.20;;;;;;5048255;28;20269;-73
2022/02/27 12:59:40;;;;;;;1.42;1.33;;;13.00;54.30;;;;;;5045946;28;20251;-76
2022/02/27 13:02:10;;;;;;;1.42;1.30;;;12.90;54.00;;;;;;5046679;28;20202;-76
2022/02/27 13:04:38;;;;;;;1.67;1.58;;;12.90;53.50;;;;;;5048728;28;20222;-73
2022/02/27 13:07:07;;;;;;;2.13;1.63;;;12.90;53.60;;;;;;5065716;28;20262;-73